sensor_id;sensor_type;location;lat;lon;timestamp;pressure;altitude;pressure_sealevel;temperature;humidity
5877;BME280;2964;42.144;24.730;2022-08-01T00:01:54;147488.50;;;23.88;62.48
5877;BME280;2964;42.144;24.730;2022-08-01T00:04:21;147537.94;;;24.08;61.96
5877;BME280;2964;42.144;24.730;2022-08-01T00:06:47;147563.34;;;24.19;61.57
5877;BME280;2964;42.144;24.730;2022-08-01T00:09:14;147576.03;;;24.24;61.06
5877;BME280;2964;42.144;24.730;2022-08-01T00:11:41;147597.56;;;24.33;60.75
5877;BME280;2964;42.144;24.730;2022-08-01T00:14:08;147593.78;;;24.31;60.52
5877;BME280;2964;42.144;24.730;2022-08-01T00:16:36;147635.66;;;24.48;60.13
5877;BME280;2964;42.144;24.730;2022-08-01T00:19:04;147567.16;;;24.20;59.81
5877;BME280;2964;42.144;24.730;2022-08-01T00:21:30;147626.78;;;24.44;59.88
5877;BME280;2964;42.144;24.730;2022-08-01T00:23:57;147644.53;;;24.52;59.37
5877;BME280;2964;42.144;24.730;2022-08-01T00:26:24;147570.97;;;24.22;59.75
5877;BME280;2964;42.144;24.730;2022-08-01T00:28:51;147568.41;;;24.21;59.94
5877;BME280;2964;42.144;24.730;2022-08-01T00:31:18;147615.34;;;24.40;59.80
5877;BME280;2964;42.144;24.730;2022-08-01T00:33:44;147638.16;;;24.49;59.34
5877;BME280;2964;42.144;24.730;2022-08-01T00:36:12;147654.75;;;24.56;59.07
5877;BME280;2964;42.144;24.730;2022-08-01T00:38:39;147558.28;;;24.17;59.82
5877;BME280;2964;42.144;24.730;2022-08-01T00:41:06;147572.22;;;24.22;59.66
5877;BME280;2964;42.144;24.730;2022-08-01T00:43:32;147551.91;;;24.14;59.96
5877;BME280;2964;42.144;24.730;2022-08-01T00:45:59;147535.44;;;24.07;59.85
5877;BME280;2964;42.144;24.730;2022-08-01T00:48:26;147531.63;;;24.06;59.78
5877;BME280;2964;42.144;24.730;2022-08-01T00:50:53;147502.47;;;23.94;60.00
5877;BME280;2964;42.144;24.730;2022-08-01T00:53:21;147516.41;;;24.00;60.64
5877;BME280;2964;42.144;24.730;2022-08-01T00:55:47;147499.91;;;23.93;60.07
5877;BME280;2964;42.144;24.730;2022-08-01T00:58:14;147487.22;;;23.88;60.39
5877;BME280;2964;42.144;24.730;2022-08-01T01:00:41;147466.94;;;23.80;60.45
5877;BME280;2964;42.144;24.730;2022-08-01T01:03:08;147459.25;;;23.77;60.27
5877;BME280;2964;42.144;24.730;2022-08-01T01:05:40;147461.81;;;23.78;60.01
5877;BME280;2964;42.144;24.730;2022-08-01T01:08:14;147422.47;;;23.62;60.38
5877;BME280;2964;42.144;24.730;2022-08-01T01:10:48;147440.25;;;23.69;60.20
5877;BME280;2964;42.144;24.730;2022-08-01T01:13:21;147421.22;;;23.61;60.60
5877;BME280;2964;42.144;24.730;2022-08-01T01:15:51;147402.22;;;23.54;60.68
5877;BME280;2964;42.144;24.730;2022-08-01T01:18:23;147402.22;;;23.54;60.65
5877;BME280;2964;42.144;24.730;2022-08-01T01:20:57;147385.72;;;23.47;60.39
5877;BME280;2964;42.144;24.730;2022-08-01T01:23:36;147351.44;;;23.33;61.07
5877;BME280;2964;42.144;24.730;2022-08-01T01:26:23;147315.97;;;23.19;61.60
5877;BME280;2964;42.144;24.730;2022-08-01T01:28:59;147342.63;;;23.29;60.87
5877;BME280;2964;42.144;24.730;2022-08-01T01:31:28;147293.16;;;23.09;61.73
5877;BME280;2964;42.144;24.730;2022-08-01T01:33:58;147324.88;;;23.22;61.62
5877;BME280;2964;42.144;24.730;2022-08-01T01:36:26;147303.31;;;23.13;61.48
5877;BME280;2964;42.144;24.730;2022-08-01T01:38:54;147337.50;;;23.27;61.62
5877;BME280;2964;42.144;24.730;2022-08-01T01:41:22;147318.50;;;23.20;61.50
5877;BME280;2964;42.144;24.730;2022-08-01T01:43:50;147280.47;;;23.04;62.20
5877;BME280;2964;42.144;24.730;2022-08-01T01:46:22;147313.44;;;23.18;62.29
5877;BME280;2964;42.144;24.730;2022-08-01T01:48:50;147318.50;;;23.20;61.58
5877;BME280;2964;42.144;24.730;2022-08-01T01:51:21;147246.19;;;22.90;61.87
5877;BME280;2964;42.144;24.730;2022-08-01T01:53:49;147252.53;;;22.93;62.85
5877;BME280;2964;42.144;24.730;2022-08-01T01:56:18;147236.06;;;22.86;62.75
5877;BME280;2964;42.144;24.730;2022-08-01T01:58:48;147196.78;;;22.70;63.71
5877;BME280;2964;42.144;24.730;2022-08-01T02:01:18;147220.84;;;22.80;63.68
5877;BME280;2964;42.144;24.730;2022-08-01T02:03:48;147175.22;;;22.62;63.99
5877;BME280;2964;42.144;24.730;2022-08-01T02:06:16;147200.56;;;22.72;63.94
5877;BME280;2964;42.144;24.730;2022-08-01T02:08:44;147238.59;;;22.87;62.69
5877;BME280;2964;42.144;24.730;2022-08-01T02:11:11;147286.78;;;23.07;62.39
5877;BME280;2964;42.144;24.730;2022-08-01T02:13:46;147241.13;;;22.88;62.61
5877;BME280;2964;42.144;24.730;2022-08-01T02:16:15;147246.19;;;22.90;62.42
5877;BME280;2964;42.144;24.730;2022-08-01T02:18:45;147172.66;;;22.61;62.85
5877;BME280;2964;42.144;24.730;2022-08-01T02:21:13;147208.16;;;22.75;62.99
5877;BME280;2964;42.144;24.730;2022-08-01T02:23:43;147223.38;;;22.81;62.71
5877;BME280;2964;42.144;24.730;2022-08-01T02:26:14;147210.72;;;22.76;62.92
5877;BME280;2964;42.144;24.730;2022-08-01T02:28:47;147147.34;;;22.50;63.21
5877;BME280;2964;42.144;24.730;2022-08-01T02:31:18;147139.72;;;22.47;63.72
5877;BME280;2964;42.144;24.730;2022-08-01T02:33:54;147160.00;;;22.55;63.45
5877;BME280;2964;42.144;24.730;2022-08-01T02:36:25;147162.53;;;22.57;63.26
5877;BME280;2964;42.144;24.730;2022-08-01T02:38:54;147120.72;;;22.40;63.22
5877;BME280;2964;42.144;24.730;2022-08-01T02:41:24;147122.00;;;22.40;63.40
5877;BME280;2964;42.144;24.730;2022-08-01T02:43:53;147130.88;;;22.44;63.57
5877;BME280;2964;42.144;24.730;2022-08-01T02:46:26;147120.72;;;22.40;63.22
5877;BME280;2964;42.144;24.730;2022-08-01T02:49:00;147161.28;;;22.56;62.83
5877;BME280;2964;42.144;24.730;2022-08-01T02:51:29;147154.94;;;22.53;62.82
5877;BME280;2964;42.144;24.730;2022-08-01T02:53:59;147162.53;;;22.57;62.92
5877;BME280;2964;42.144;24.730;2022-08-01T02:56:29;147177.75;;;22.63;62.32
5877;BME280;2964;42.144;24.730;2022-08-01T02:59:03;147082.66;;;22.24;63.67
5877;BME280;2964;42.144;24.730;2022-08-01T03:01:32;147089.06;;;22.27;63.00
5877;BME280;2964;42.144;24.730;2022-08-01T03:04:02;147099.19;;;22.31;63.20
5877;BME280;2964;42.144;24.730;2022-08-01T03:06:30;147081.38;;;22.24;63.32
5877;BME280;2964;42.144;24.730;2022-08-01T03:08:58;147130.88;;;22.44;62.20
5877;BME280;2964;42.144;24.730;2022-08-01T03:11:26;147075.06;;;22.21;62.90
5877;BME280;2964;42.144;24.730;2022-08-01T03:13:55;147154.94;;;22.53;62.04
5877;BME280;2964;42.144;24.730;2022-08-01T03:16:24;147120.72;;;22.40;61.84
5877;BME280;2964;42.144;24.730;2022-08-01T03:18:53;147124.53;;;22.41;61.78
5877;BME280;2964;42.144;24.730;2022-08-01T03:21:23;147149.88;;;22.51;61.36
5877;BME280;2964;42.144;24.730;2022-08-01T03:23:50;147089.06;;;22.27;61.22
5877;BME280;2964;42.144;24.730;2022-08-01T03:26:23;147134.66;;;22.45;61.57
5877;BME280;2964;42.144;24.730;2022-08-01T03:28:52;147147.34;;;22.50;60.97
5877;BME280;2964;42.144;24.730;2022-08-01T03:31:23;147119.47;;;22.39;61.06
5877;BME280;2964;42.144;24.730;2022-08-01T03:33:50;147160.00;;;22.55;60.42
5877;BME280;2964;42.144;24.730;2022-08-01T03:36:21;147118.19;;;22.39;60.28
5877;BME280;2964;42.144;24.730;2022-08-01T03:38:52;147189.16;;;22.67;59.72
5877;BME280;2964;42.144;24.730;2022-08-01T03:41:23;147160.00;;;22.55;59.60
5877;BME280;2964;42.144;24.730;2022-08-01T03:43:55;147172.66;;;22.61;59.25
5877;BME280;2964;42.144;24.730;2022-08-01T03:46:26;147144.78;;;22.49;60.03
5877;BME280;2964;42.144;24.730;2022-08-01T03:48:58;147187.91;;;22.67;59.29
5877;BME280;2964;42.144;24.730;2022-08-01T03:51:27;147224.66;;;22.82;59.09
5877;BME280;2964;42.144;24.730;2022-08-01T03:53:56;147214.50;;;22.78;59.33
5877;BME280;2964;42.144;24.730;2022-08-01T03:56:26;147218.31;;;22.79;59.13
5877;BME280;2964;42.144;24.730;2022-08-01T03:58:56;147203.09;;;22.73;58.76
5877;BME280;2964;42.144;24.730;2022-08-01T04:01:23;147230.97;;;22.84;59.00
5877;BME280;2964;42.144;24.730;2022-08-01T04:03:50;147161.28;;;22.56;59.23
5877;BME280;2964;42.144;24.730;2022-08-01T04:06:17;147160.00;;;22.55;60.02
5877;BME280;2964;42.144;24.730;2022-08-01T04:08:43;147172.66;;;22.61;60.08
5877;BME280;2964;42.144;24.730;2022-08-01T04:11:23;147190.41;;;22.68;59.99
5877;BME280;2964;42.144;24.730;2022-08-01T04:13:51;147187.91;;;22.67;60.12
5877;BME280;2964;42.144;24.730;2022-08-01T04:16:17;147162.53;;;22.57;59.64
5877;BME280;2964;42.144;24.730;2022-08-01T04:18:44;147167.59;;;22.59;60.69
5877;BME280;2964;42.144;24.730;2022-08-01T04:21:11;147220.84;;;22.80;60.30
5877;BME280;2964;42.144;24.730;2022-08-01T04:23:41;147223.38;;;22.81;60.37
5877;BME280;2964;42.144;24.730;2022-08-01T04:26:09;147228.44;;;22.83;59.83
5877;BME280;2964;42.144;24.730;2022-08-01T04:28:39;147213.22;;;22.77;59.64
5877;BME280;2964;42.144;24.730;2022-08-01T04:31:09;147215.78;;;22.78;60.12
5877;BME280;2964;42.144;24.730;2022-08-01T04:33:38;147347.69;;;23.31;58.79
5877;BME280;2964;42.144;24.730;2022-08-01T04:36:09;147350.19;;;23.32;58.52
5877;BME280;2964;42.144;24.730;2022-08-01T04:38:37;147319.78;;;23.20;57.91
5877;BME280;2964;42.144;24.730;2022-08-01T04:41:06;147421.22;;;23.61;57.50
5877;BME280;2964;42.144;24.730;2022-08-01T04:43:33;147629.28;;;24.45;55.10
5877;BME280;2964;42.144;24.730;2022-08-01T04:46:02;147892.16;;;25.52;51.89
5877;BME280;2964;42.144;24.730;2022-08-01T04:48:31;148259.38;;;27.00;48.55
5877;BME280;2964;42.144;24.730;2022-08-01T04:50:58;148513.78;;;28.03;45.32
5877;BME280;2964;42.144;24.730;2022-08-01T04:53:25;148633.34;;;28.51;44.22
5877;BME280;2964;42.144;24.730;2022-08-01T04:55:53;149045.91;;;30.17;41.84
5877;BME280;2964;42.144;24.730;2022-08-01T04:58:20;149109.63;;;30.43;41.45
5877;BME280;2964;42.144;24.730;2022-08-01T05:00:47;149345.41;;;31.38;40.17
5877;BME280;2964;42.144;24.730;2022-08-01T05:03:16;149521.38;;;32.09;36.64
5877;BME280;2964;42.144;24.730;2022-08-01T05:05:43;149379.84;;;31.52;38.43
5877;BME280;2964;42.144;24.730;2022-08-01T05:08:10;149402.78;;;31.61;38.33
5877;BME280;2964;42.144;24.730;2022-08-01T05:10:37;149080.31;;;30.31;39.54
5877;BME280;2964;42.144;24.730;2022-08-01T05:13:04;149040.81;;;30.15;41.98
5877;BME280;2964;42.144;24.730;2022-08-01T05:15:32;149350.50;;;31.40;39.73
5877;BME280;2964;42.144;24.730;2022-08-01T05:17:58;149832.69;;;33.34;36.24
5877;BME280;2964;42.144;24.730;2022-08-01T05:20:27;149734.41;;;32.95;36.52
5877;BME280;2964;42.144;24.730;2022-08-01T05:22:54;149707.63;;;32.84;35.97
5877;BME280;2964;42.144;24.730;2022-08-01T05:25:21;150005.03;;;34.03;35.03
5877;BME280;2964;42.144;24.730;2022-08-01T05:27:48;150369.06;;;35.50;31.58
5877;BME280;2964;42.144;24.730;2022-08-01T05:30:15;150590.19;;;36.39;30.70
5877;BME280;2964;42.144;24.730;2022-08-01T05:32:42;150475.13;;;35.92;29.83
5877;BME280;2964;42.144;24.730;2022-08-01T05:35:09;150231.06;;;34.94;29.76
5877;BME280;2964;42.144;24.730;2022-08-01T05:37:37;150285.97;;;35.16;30.36
5877;BME280;2964;42.144;24.730;2022-08-01T05:40:04;150053.53;;;34.23;30.70
5877;BME280;2964;42.144;24.730;2022-08-01T05:42:31;150436.81;;;35.77;28.84
5877;BME280;2964;42.144;24.730;2022-08-01T05:44:58;150637.50;;;36.58;28.75
5877;BME280;2964;42.144;24.730;2022-08-01T05:47:25;150348.63;;;35.42;28.71
5877;BME280;2964;42.144;24.730;2022-08-01T05:49:51;150017.78;;;34.09;31.39
5877;BME280;2964;42.144;24.730;2022-08-01T05:52:18;150559.53;;;36.26;27.46
5877;BME280;2964;42.144;24.730;2022-08-01T05:54:46;150881.78;;;37.56;25.46
5877;BME280;2964;42.144;24.730;2022-08-01T05:57:13;150794.81;;;37.21;25.56
5877;BME280;2964;42.144;24.730;2022-08-01T05:59:40;150819.09;;;37.31;24.69
5877;BME280;2964;42.144;24.730;2022-08-01T06:02:06;150968.78;;;37.91;24.70
5877;BME280;2964;42.144;24.730;2022-08-01T06:04:33;151291.31;;;39.20;22.08
5877;BME280;2964;42.144;24.730;2022-08-01T06:07:00;150737.22;;;36.98;24.54
5877;BME280;2964;42.144;24.730;2022-08-01T06:09:26;151479.59;;;39.95;22.10
5877;BME280;2964;42.144;24.730;2022-08-01T06:11:54;150165.97;;;34.68;26.73
5877;BME280;2964;42.144;24.730;2022-08-01T06:14:21;150153.13;;;34.63;26.43
5877;BME280;2964;42.144;24.730;2022-08-01T06:16:48;150765.34;;;37.09;24.41
5877;BME280;2964;42.144;24.730;2022-08-01T06:19:15;150702.72;;;36.84;24.47
5877;BME280;2964;42.144;24.730;2022-08-01T06:21:41;151188.88;;;38.79;22.30
5877;BME280;2964;42.144;24.730;2022-08-01T06:24:08;151475.75;;;39.94;22.15
5877;BME280;2964;42.144;24.730;2022-08-01T06:26:35;151630.75;;;40.56;20.00
5877;BME280;2964;42.144;24.730;2022-08-01T06:29:03;151461.63;;;39.88;20.62
5877;BME280;2964;42.144;24.730;2022-08-01T06:31:30;151156.94;;;38.66;21.94
5877;BME280;2964;42.144;24.730;2022-08-01T06:33:57;151045.53;;;38.21;22.04
5877;BME280;2964;42.144;24.730;2022-08-01T06:36:24;150973.91;;;37.93;22.47
5877;BME280;2964;42.144;24.730;2022-08-01T06:38:51;150609.34;;;36.46;23.85
5877;BME280;2964;42.144;24.730;2022-08-01T06:41:17;150618.28;;;36.50;25.10
5877;BME280;2964;42.144;24.730;2022-08-01T06:43:44;151109.50;;;38.47;20.76
5877;BME280;2964;42.144;24.730;2022-08-01T06:46:12;150973.91;;;37.93;21.99
5877;BME280;2964;42.144;24.730;2022-08-01T06:48:39;150986.69;;;37.98;21.62
5877;BME280;2964;42.144;24.730;2022-08-01T06:51:06;150996.91;;;38.02;22.12
5877;BME280;2964;42.144;24.730;2022-08-01T06:53:38;151219.59;;;38.91;21.25
5877;BME280;2964;42.144;24.730;2022-08-01T06:56:06;151255.47;;;39.06;20.69
5877;BME280;2964;42.144;24.730;2022-08-01T06:58:34;151032.78;;;38.16;20.63
5877;BME280;2964;42.144;24.730;2022-08-01T07:01:02;150902.25;;;37.64;21.41
5877;BME280;2964;42.144;24.730;2022-08-01T07:03:32;151028.94;;;38.15;21.26
5877;BME280;2964;42.144;24.730;2022-08-01T07:05:59;151145.38;;;38.61;21.35
5877;BME280;2964;42.144;24.730;2022-08-01T07:08:26;150897.16;;;37.62;21.63
5877;BME280;2964;42.144;24.730;2022-08-01T07:10:53;150656.66;;;36.65;23.27
5877;BME280;2964;42.144;24.730;2022-08-01T07:13:21;150733.38;;;36.96;23.08
5877;BME280;2964;42.144;24.730;2022-08-01T07:15:50;151190.19;;;38.79;21.57
5877;BME280;2964;42.144;24.730;2022-08-01T07:18:18;151365.59;;;39.50;20.76
5877;BME280;2964;42.144;24.730;2022-08-01T07:20:46;151135.16;;;38.57;20.58
5877;BME280;2964;42.144;24.730;2022-08-01T07:23:13;150989.22;;;37.99;21.35
5877;BME280;2964;42.144;24.730;2022-08-01T07:25:40;150186.38;;;34.76;24.66
5877;BME280;2964;42.144;24.730;2022-08-01T07:28:07;150840.84;;;37.39;22.21
5877;BME280;2964;42.144;24.730;2022-08-01T07:30:34;151132.59;;;38.56;21.79
5877;BME280;2964;42.144;24.730;2022-08-01T07:33:01;151005.88;;;38.05;21.72
5877;BME280;2964;42.144;24.730;2022-08-01T07:35:27;151003.28;;;38.04;21.33
5877;BME280;2964;42.144;24.730;2022-08-01T07:37:59;150861.28;;;37.47;21.95
5877;BME280;2964;42.144;24.730;2022-08-01T07:40:25;151019.97;;;38.11;21.25
5877;BME280;2964;42.144;24.730;2022-08-01T07:42:52;151160.72;;;38.68;20.77
5877;BME280;2964;42.144;24.730;2022-08-01T07:45:19;150984.13;;;37.97;21.44
5877;BME280;2964;42.144;24.730;2022-08-01T07:47:46;150912.47;;;37.68;22.12
5877;BME280;2964;42.144;24.730;2022-08-01T07:50:15;151009.72;;;38.07;21.31
5877;BME280;2964;42.144;24.730;2022-08-01T07:52:42;150780.75;;;37.15;21.94
5877;BME280;2964;42.144;24.730;2022-08-01T07:55:11;150670.75;;;36.71;22.80
5877;BME280;2964;42.144;24.730;2022-08-01T07:57:38;150427.88;;;35.73;23.88
5877;BME280;2964;42.144;24.730;2022-08-01T08:00:06;150421.44;;;35.71;23.40
5877;BME280;2964;42.144;24.730;2022-08-01T08:02:34;150448.28;;;35.82;24.39
5877;BME280;2964;42.144;24.730;2022-08-01T08:05:01;150597.88;;;36.42;22.62
5877;BME280;2964;42.144;24.730;2022-08-01T08:07:29;150596.59;;;36.41;22.91
5877;BME280;2964;42.144;24.730;2022-08-01T08:09:56;149846.72;;;33.40;25.52
5877;BME280;2964;42.144;24.730;2022-08-01T08:12:24;150243.84;;;34.99;25.35
5877;BME280;2964;42.144;24.730;2022-08-01T08:14:50;150482.81;;;35.95;23.58
5877;BME280;2964;42.144;24.730;2022-08-01T08:17:17;150222.13;;;34.91;24.14
5877;BME280;2964;42.144;24.730;2022-08-01T08:19:44;150156.97;;;34.65;25.01
5877;BME280;2964;42.144;24.730;2022-08-01T08:22:11;150255.31;;;35.04;25.13
5877;BME280;2964;42.144;24.730;2022-08-01T08:24:38;150301.34;;;35.23;24.03
5877;BME280;2964;42.144;24.730;2022-08-01T08:27:04;150324.34;;;35.32;24.22
5877;BME280;2964;42.144;24.730;2022-08-01T08:29:34;150254.06;;;35.04;24.54
5877;BME280;2964;42.144;24.730;2022-08-01T08:32:01;150363.94;;;35.48;23.52
5877;BME280;2964;42.144;24.730;2022-08-01T08:34:28;150309.03;;;35.26;23.78
5877;BME280;2964;42.144;24.730;2022-08-01T08:36:56;150431.72;;;35.75;23.98
5877;BME280;2964;42.144;24.730;2022-08-01T08:39:23;150365.22;;;35.48;24.30
5877;BME280;2964;42.144;24.730;2022-08-01T08:41:50;150302.66;;;35.23;24.41
5877;BME280;2964;42.144;24.730;2022-08-01T08:44:18;150344.78;;;35.40;24.52
5877;BME280;2964;42.144;24.730;2022-08-01T08:46:49;150503.22;;;36.04;23.31
5877;BME280;2964;42.144;24.730;2022-08-01T08:49:18;150569.75;;;36.30;23.97
5877;BME280;2964;42.144;24.730;2022-08-01T08:51:47;150539.06;;;36.18;23.87
5877;BME280;2964;42.144;24.730;2022-08-01T08:54:15;150564.66;;;36.28;23.42
5877;BME280;2964;42.144;24.730;2022-08-01T08:56:43;150357.59;;;35.45;23.87
5877;BME280;2964;42.144;24.730;2022-08-01T08:59:11;150174.91;;;34.72;25.05
5877;BME280;2964;42.144;24.730;2022-08-01T09:01:39;150343.53;;;35.40;25.30
5877;BME280;2964;42.144;24.730;2022-08-01T09:04:08;149781.66;;;33.14;26.58
5877;BME280;2964;42.144;24.730;2022-08-01T09:06:34;150096.97;;;34.40;25.98
5877;BME280;2964;42.144;24.730;2022-08-01T09:09:01;150407.34;;;35.65;24.72
5877;BME280;2964;42.144;24.730;2022-08-01T09:11:28;150452.13;;;35.83;24.56
5877;BME280;2964;42.144;24.730;2022-08-01T09:14:03;150551.84;;;36.23;23.93
5877;BME280;2964;42.144;24.730;2022-08-01T09:16:30;150109.75;;;34.46;25.94
5877;BME280;2964;42.144;24.730;2022-08-01T09:19:09;150176.16;;;34.72;25.77
5877;BME280;2964;42.144;24.730;2022-08-01T09:21:36;150312.88;;;35.27;24.79
5877;BME280;2964;42.144;24.730;2022-08-01T09:24:12;150248.94;;;35.02;24.98
5877;BME280;2964;42.144;24.730;2022-08-01T09:26:39;150183.84;;;34.75;26.53
5877;BME280;2964;42.144;24.730;2022-08-01T09:29:08;150280.88;;;35.14;25.69
5877;BME280;2964;42.144;24.730;2022-08-01T09:31:44;150233.66;;;34.95;24.67
5877;BME280;2964;42.144;24.730;2022-08-01T09:34:14;150403.56;;;35.64;24.90
5877;BME280;2964;42.144;24.730;2022-08-01T09:36:47;150533.91;;;36.16;23.96
5877;BME280;2964;42.144;24.730;2022-08-01T09:39:17;150408.66;;;35.66;24.55
5877;BME280;2964;42.144;24.730;2022-08-01T09:41:54;150165.97;;;34.68;25.75
5877;BME280;2964;42.144;24.730;2022-08-01T09:44:37;150363.94;;;35.48;25.03
5877;BME280;2964;42.144;24.730;2022-08-01T09:47:04;150384.38;;;35.56;25.12
5877;BME280;2964;42.144;24.730;2022-08-01T09:49:34;150324.34;;;35.32;25.77
5877;BME280;2964;42.144;24.730;2022-08-01T09:52:12;150312.88;;;35.27;25.49
5877;BME280;2964;42.144;24.730;2022-08-01T09:54:39;150505.81;;;36.05;24.98
5877;BME280;2964;42.144;24.730;2022-08-01T09:57:08;150351.16;;;35.43;25.53
5877;BME280;2964;42.144;24.730;2022-08-01T09:59:36;150403.56;;;35.64;25.44
5877;BME280;2964;42.144;24.730;2022-08-01T10:02:06;150440.66;;;35.79;25.96
5877;BME280;2964;42.144;24.730;2022-08-01T10:04:34;150260.41;;;35.06;25.69
5877;BME280;2964;42.144;24.730;2022-08-01T10:07:06;150401.00;;;35.63;26.23
5877;BME280;2964;42.144;24.730;2022-08-01T10:09:35;150413.78;;;35.68;25.15
5877;BME280;2964;42.144;24.730;2022-08-01T10:12:03;150093.13;;;34.39;26.38
5877;BME280;2964;42.144;24.730;2022-08-01T10:14:30;150028.00;;;34.13;26.79
5877;BME280;2964;42.144;24.730;2022-08-01T10:16:59;149923.34;;;33.71;27.80
5877;BME280;2964;42.144;24.730;2022-08-01T10:19:28;149767.56;;;33.08;28.18
5877;BME280;2964;42.144;24.730;2022-08-01T10:21:57;149729.31;;;32.93;29.03
5877;BME280;2964;42.144;24.730;2022-08-01T10:24:25;149665.53;;;32.67;29.75
5877;BME280;2964;42.144;24.730;2022-08-01T10:26:55;149452.50;;;31.81;31.54
5877;BME280;2964;42.144;24.730;2022-08-01T10:29:26;149262.56;;;31.05;31.29
5877;BME280;2964;42.144;24.730;2022-08-01T10:31:53;149509.94;;;32.04;30.96
5877;BME280;2964;42.144;24.730;2022-08-01T10:34:20;149414.28;;;31.66;30.67
5877;BME280;2964;42.144;24.730;2022-08-01T10:36:47;149367.06;;;31.47;31.04
5877;BME280;2964;42.144;24.730;2022-08-01T10:39:17;149293.13;;;31.17;32.57
5877;BME280;2964;42.144;24.730;2022-08-01T10:41:45;149314.78;;;31.26;32.50
5877;BME280;2964;42.144;24.730;2022-08-01T10:44:12;149246.00;;;30.98;32.14
5877;BME280;2964;42.144;24.730;2022-08-01T10:46:44;149180.97;;;30.72;32.29
5877;BME280;2964;42.144;24.730;2022-08-01T10:49:13;149180.97;;;30.72;32.26
5877;BME280;2964;42.144;24.730;2022-08-01T10:51:42;149073.94;;;30.29;33.26
5877;BME280;2964;42.144;24.730;2022-08-01T10:54:11;149145.28;;;30.57;33.01
5877;BME280;2964;42.144;24.730;2022-08-01T10:56:43;149163.13;;;30.65;33.87
5877;BME280;2964;42.144;24.730;2022-08-01T10:59:14;149187.31;;;30.74;32.35
5877;BME280;2964;42.144;24.730;2022-08-01T11:01:42;149126.19;;;30.50;33.10
5877;BME280;2964;42.144;24.730;2022-08-01T11:04:10;149131.28;;;30.52;33.64
5877;BME280;2964;42.144;24.730;2022-08-01T11:06:42;149109.63;;;30.43;34.07
5877;BME280;2964;42.144;24.730;2022-08-01T11:09:24;149040.81;;;30.15;33.79
5877;BME280;2964;42.144;24.730;2022-08-01T11:12:02;149076.47;;;30.30;34.30
5877;BME280;2964;42.144;24.730;2022-08-01T11:14:31;149133.88;;;30.53;34.72
5877;BME280;2964;42.144;24.730;2022-08-01T11:17:30;149165.72;;;30.66;33.14
5877;BME280;2964;42.144;24.730;2022-08-01T11:20:07;149100.72;;;30.39;33.34
5877;BME280;2964;42.144;24.730;2022-08-01T11:26:10;149112.19;;;30.44;33.44
5877;BME280;2964;42.144;24.730;2022-08-01T11:28:38;149098.19;;;30.38;33.81
5877;BME280;2964;42.144;24.730;2022-08-01T11:31:29;149140.22;;;30.55;34.01
5877;BME280;2964;42.144;24.730;2022-08-01T11:33:56;149193.72;;;30.77;33.25
5877;BME280;2964;42.144;24.730;2022-08-01T11:36:22;149175.88;;;30.70;34.04
5877;BME280;2964;42.144;24.730;2022-08-01T11:39:11;149209.00;;;30.83;33.00
5877;BME280;2964;42.144;24.730;2022-08-01T11:41:38;149180.97;;;30.72;33.60
5877;BME280;2964;42.144;24.730;2022-08-01T11:44:07;149132.56;;;30.52;33.12
5877;BME280;2964;42.144;24.730;2022-08-01T11:46:55;149147.88;;;30.58;33.16
5877;BME280;2964;42.144;24.730;2022-08-01T11:49:23;149159.31;;;30.63;33.82
5877;BME280;2964;42.144;24.730;2022-08-01T11:51:57;149154.22;;;30.61;33.28
5877;BME280;2964;42.144;24.730;2022-08-01T11:54:26;149137.69;;;30.54;32.39
5877;BME280;2964;42.144;24.730;2022-08-01T11:56:55;149070.13;;;30.27;33.28
5877;BME280;2964;42.144;24.730;2022-08-01T11:59:23;149082.88;;;30.32;33.09
5877;BME280;2964;42.144;24.730;2022-08-01T12:01:50;149122.38;;;30.48;33.02
5877;BME280;2964;42.144;24.730;2022-08-01T12:04:17;149130.03;;;30.51;33.54
5877;BME280;2964;42.144;24.730;2022-08-01T12:06:44;149165.72;;;30.66;33.28
5877;BME280;2964;42.144;24.730;2022-08-01T12:09:21;149186.06;;;30.74;32.04
5877;BME280;2964;42.144;24.730;2022-08-01T12:11:49;149155.47;;;30.62;31.95
5877;BME280;2964;42.144;24.730;2022-08-01T12:14:17;149124.94;;;30.49;32.52
5877;BME280;2964;42.144;24.730;2022-08-01T12:16:54;149188.63;;;30.75;32.97
5877;BME280;2964;42.144;24.730;2022-08-01T12:19:23;149184.81;;;30.73;32.19
5877;BME280;2964;42.144;24.730;2022-08-01T12:22:10;149196.25;;;30.78;32.42
5877;BME280;2964;42.144;24.730;2022-08-01T12:24:38;149183.53;;;30.73;32.96
5877;BME280;2964;42.144;24.730;2022-08-01T12:27:06;149206.47;;;30.82;32.53
5877;BME280;2964;42.144;24.730;2022-08-01T12:29:34;149178.41;;;30.71;31.95
5877;BME280;2964;42.144;24.730;2022-08-01T12:32:03;149175.88;;;30.70;32.83
5877;BME280;2964;42.144;24.730;2022-08-01T12:34:30;149209.00;;;30.83;32.44
5877;BME280;2964;42.144;24.730;2022-08-01T12:37:00;149209.00;;;30.83;32.30
5877;BME280;2964;42.144;24.730;2022-08-01T12:39:34;149186.06;;;30.74;31.49
5877;BME280;2964;42.144;24.730;2022-08-01T12:42:05;149228.16;;;30.91;32.32
5877;BME280;2964;42.144;24.730;2022-08-01T12:44:33;149230.72;;;30.92;32.97
5877;BME280;2964;42.144;24.730;2022-08-01T12:47:02;149249.81;;;31.00;31.90
5877;BME280;2964;42.144;24.730;2022-08-01T12:49:31;149248.56;;;30.99;31.98
5877;BME280;2964;42.144;24.730;2022-08-01T12:51:58;149253.66;;;31.01;32.28
5877;BME280;2964;42.144;24.730;2022-08-01T12:54:24;149257.47;;;31.03;32.70
5877;BME280;2964;42.144;24.730;2022-08-01T12:56:51;149235.81;;;30.94;33.07
5877;BME280;2964;42.144;24.730;2022-08-01T12:59:20;149254.91;;;31.02;32.08
5877;BME280;2964;42.144;24.730;2022-08-01T13:01:48;149290.59;;;31.16;32.40
5877;BME280;2964;42.144;24.730;2022-08-01T13:04:16;149316.06;;;31.26;31.97
5877;BME280;2964;42.144;24.730;2022-08-01T13:06:43;149305.88;;;31.22;32.13
5877;BME280;2964;42.144;24.730;2022-08-01T13:09:10;149327.56;;;31.31;32.10
5877;BME280;2964;42.144;24.730;2022-08-01T13:11:38;149316.06;;;31.26;32.10
5877;BME280;2964;42.144;24.730;2022-08-01T13:14:06;149321.19;;;31.28;32.23